Time;durP1;ratioP1;P1;durP2;ratioP2;P2;SDS_P1;SDS_P2;PMS_P1;PMS_P2;Temp;Humidity;BMP_temperature;BMP_pressure;BME280_temperature;BME280_humidity;BME280_pressure;Samples;Min_cycle;Max_cycle;Signal;HPM_P1;HPM_P2
2022/09/30 00:00:21;;;;;;;54.03;9.13;;;9.90;99.90;;;;;;5069882;28;20430;-76
2022/09/30 00:03:07;;;;;;;8.77;6.17;;;10.00;99.90;;;;;;5068816;28;20446;-77
2022/09/30 00:05:57;;;;;;;9.63;7.00;;;10.00;99.90;;;;;;5066019;28;20520;-77
2022/09/30 00:08:44;;;;;;;8.97;6.53;;;10.00;99.90;;;;;;5063564;28;20518;-75
2022/09/30 00:11:32;;;;;;;7.43;6.60;;;10.00;99.90;;;;;;5061270;28;20552;-76
2022/09/30 00:14:21;;;;;;;9.87;6.40;;;10.10;99.90;;;;;;5068940;28;20548;-77
2022/09/30 00:17:06;;;;;;;10.53;6.87;;;10.10;99.90;;;;;;5067510;28;20442;-77
2022/09/30 00:19:52;;;;;;;8.47;6.13;;;10.10;99.90;;;;;;5067450;28;20439;-77
2022/09/30 00:22:38;;;;;;;9.27;6.50;;;10.00;99.90;;;;;;5071948;28;21172;-77
2022/09/30 00:25:25;;;;;;;8.60;6.50;;;10.10;99.90;;;;;;5073192;28;20482;-76
2022/09/30 00:28:10;;;;;;;11.83;6.50;;;10.10;99.90;;;;;;5072597;28;20447;-76
2022/09/30 00:30:59;;;;;;;10.73;6.40;;;10.20;99.90;;;;;;5071299;28;20553;-77
2022/09/30 00:34:05;;;;;;;7.43;6.20;;;10.20;99.90;;;;;;5079130;28;20461;-76
2022/09/30 00:36:52;;;;;;;10.37;6.20;;;10.30;99.90;;;;;;5071749;28;20843;-77
2022/09/30 00:39:38;;;;;;;9.80;6.77;;;10.30;99.90;;;;;;5068576;28;20470;-75
2022/09/30 00:42:28;;;;;;;10.13;5.60;;;10.20;99.90;;;;;;5073127;28;20449;-76
2022/09/30 00:45:16;;;;;;;7.17;6.47;;;10.10;99.90;;;;;;5086298;28;20539;-77
2022/09/30 00:48:08;;;;;;;9.00;6.90;;;10.10;99.90;;;;;;5078723;28;20475;-77
2022/09/30 00:50:54;;;;;;;10.80;6.87;;;10.00;99.90;;;;;;5069588;28;20452;-77
2022/09/30 00:53:45;;;;;;;13.30;6.57;;;10.00;99.90;;;;;;5072645;28;20436;-75
2022/09/30 00:56:36;;;;;;;11.43;6.53;;;10.00;99.90;;;;;;5070621;28;20599;-76
2022/09/30 00:59:27;;;;;;;9.10;7.30;;;10.00;99.90;;;;;;5067518;28;20425;-77
2022/09/30 01:02:13;;;;;;;10.77;6.97;;;9.90;99.90;;;;;;5072075;28;20445;-75
2022/09/30 01:04:58;;;;;;;8.20;6.87;;;9.90;99.90;;;;;;5077149;28;20471;-76
2022/09/30 01:07:44;;;;;;;13.13;8.10;;;9.90;99.90;;;;;;5067403;28;20949;-77
2022/09/30 01:10:30;;;;;;;9.60;7.30;;;10.00;99.90;;;;;;5070250;28;20445;-77
2022/09/30 01:13:19;;;;;;;9.70;7.20;;;10.20;99.90;;;;;;5078224;28;20433;-75
2022/09/30 01:16:29;;;;;;;13.30;7.43;;;10.20;99.90;;;;;;5075027;28;20822;-75
2022/09/30 01:19:29;;;;;;;7.97;5.80;;;10.20;99.90;;;;;;5081727;28;20591;-76
2022/09/30 01:22:29;;;;;;;9.87;6.60;;;10.20;99.90;;;;;;5070483;28;20576;-76
2022/09/30 01:25:54;;;;;;;7.20;6.23;;;10.10;99.90;;;;;;5071470;28;20471;-76
2022/09/30 01:29:21;;;;;;;8.27;6.30;;;10.00;99.90;;;;;;5073372;28;20461;-77
2022/09/30 01:32:15;;;;;;;11.83;5.90;;;10.10;99.90;;;;;;5068822;28;20425;-77
2022/09/30 01:35:09;;;;;;;8.53;6.40;;;10.10;99.90;;;;;;5071496;28;20914;-77
2022/09/30 01:38:03;;;;;;;11.60;6.17;;;10.10;99.90;;;;;;5068624;28;20412;-77
2022/09/30 01:40:57;;;;;;;5.60;5.00;;;10.20;99.90;;;;;;5070641;28;21013;-77
2022/09/30 01:43:49;;;;;;;7.13;5.57;;;10.30;99.90;;;;;;5071986;28;20512;-76
2022/09/30 01:46:42;;;;;;;11.10;6.30;;;10.40;99.90;;;;;;5064847;28;20446;-76
2022/09/30 01:49:38;;;;;;;6.67;5.00;;;10.40;99.90;;;;;;5062847;28;20590;-77
2022/09/30 01:52:28;;;;;;;7.60;6.30;;;10.30;99.90;;;;;;5061038;28;20451;-77
2022/09/30 01:55:18;;;;;;;10.20;5.50;;;10.40;99.90;;;;;;5066207;28;20608;-76
2022/09/30 01:58:11;;;;;;;8.07;5.33;;;10.50;99.90;;;;;;5068631;28;20962;-77
2022/09/30 02:01:01;;;;;;;9.87;5.90;;;10.50;99.90;;;;;;5069319;28;20428;-77
2022/09/30 02:03:51;;;;;;;10.10;6.47;;;10.60;99.90;;;;;;5067515;28;20449;-77
2022/09/30 02:06:41;;;;;;;7.93;5.73;;;10.60;99.90;;;;;;5067935;28;20435;-77
2022/09/30 02:09:32;;;;;;;9.93;6.50;;;10.60;99.90;;;;;;5065298;28;20424;-74
2022/09/30 02:12:23;;;;;;;20.67;6.73;;;10.60;99.90;;;;;;5067296;28;20473;-76
2022/09/30 02:15:13;;;;;;;9.40;5.70;;;10.60;99.90;;;;;;5064438;28;20467;-76
2022/09/30 02:18:05;;;;;;;11.00;5.73;;;10.50;99.90;;;;;;5070215;28;20941;-76
2022/09/30 02:20:58;;;;;;;12.20;5.97;;;10.50;99.90;;;;;;5070744;28;20498;-77
2022/09/30 02:23:47;;;;;;;20.70;6.30;;;10.50;99.90;;;;;;5065122;28;20825;-76
2022/09/30 02:26:37;;;;;;;9.50;5.27;;;10.60;99.90;;;;;;5061910;28;20490;-76
2022/09/30 02:29:27;;;;;;;8.43;6.10;;;10.70;99.90;;;;;;5064050;28;20418;-75
2022/09/30 02:32:19;;;;;;;7.10;5.87;;;10.60;99.90;;;;;;5073297;28;20951;-76
2022/09/30 02:35:10;;;;;;;12.60;5.77;;;10.50;99.90;;;;;;5064942;28;20487;-76
2022/09/30 02:38:02;;;;;;;6.03;5.37;;;10.40;99.90;;;;;;5067475;28;20489;-76
2022/09/30 02:40:54;;;;;;;9.80;6.20;;;10.30;99.90;;;;;;5072090;28;20416;-76
2022/09/30 02:43:41;;;;;;;8.33;5.70;;;10.30;99.90;;;;;;5073831;28;20450;-76
2022/09/30 02:46:34;;;;;;;7.77;5.50;;;10.20;99.90;;;;;;5070717;28;20438;-75
2022/09/30 02:49:28;;;;;;;8.17;5.53;;;10.20;99.90;;;;;;5069640;28;20459;-76
2022/09/30 02:52:24;;;;;;;10.37;5.73;;;10.20;99.90;;;;;;5068109;28;20438;-76
2022/09/30 02:55:18;;;;;;;7.70;5.10;;;10.20;99.90;;;;;;5065415;28;20478;-76
2022/09/30 02:58:13;;;;;;;6.30;5.23;;;10.30;99.90;;;;;;5069085;28;20454;-77
2022/09/30 03:00:58;;;;;;;10.30;5.30;;;10.30;99.90;;;;;;5068217;28;20446;-76
2022/09/30 03:03:47;;;;;;;7.03;5.87;;;10.30;99.90;;;;;;5072442;28;20485;-76
2022/09/30 03:06:34;;;;;;;6.23;4.80;;;10.20;99.90;;;;;;5066353;28;20492;-75
2022/09/30 03:09:25;;;;;;;7.23;5.53;;;10.20;99.90;;;;;;5066886;28;20478;-77
2022/09/30 03:12:23;;;;;;;10.40;5.37;;;10.20;99.90;;;;;;5070450;28;20535;-74
2022/09/30 03:15:30;;;;;;;9.90;5.50;;;10.20;99.90;;;;;;5062044;28;20808;-74
2022/09/30 03:18:42;;;;;;;14.07;5.10;;;10.20;99.90;;;;;;5065459;28;20431;-77
2022/09/30 03:21:42;;;;;;;12.43;5.20;;;10.30;99.90;;;;;;5051192;28;20430;-76
2022/09/30 03:24:52;;;;;;;7.40;4.60;;;10.40;99.90;;;;;;5069722;28;20482;-76
2022/09/30 03:27:45;;;;;;;6.60;4.40;;;10.50;99.90;;;;;;5066083;28;20528;-77
2022/09/30 03:30:38;;;;;;;9.10;5.03;;;10.50;99.90;;;;;;5066337;28;20508;-76
2022/09/30 03:33:30;;;;;;;8.20;4.30;;;10.60;99.90;;;;;;5066343;28;20427;-76
2022/09/30 03:36:25;;;;;;;8.67;4.20;;;10.60;99.90;;;;;;5070008;28;20455;-76
2022/09/30 03:39:22;;;;;;;5.90;4.40;;;10.60;99.90;;;;;;5066067;28;20486;-77
2022/09/30 03:42:15;;;;;;;6.07;3.90;;;10.60;99.90;;;;;;5064375;28;20440;-76
2022/09/30 03:45:07;;;;;;;7.63;5.07;;;10.60;99.90;;;;;;5065338;28;20453;-76
2022/09/30 03:47:58;;;;;;;8.50;5.47;;;10.50;99.90;;;;;;5058732;28;20501;-77
2022/09/30 03:50:45;;;;;;;10.70;5.00;;;10.40;99.90;;;;;;5062205;28;20467;-76
2022/09/30 03:53:30;;;;;;;7.13;4.93;;;10.30;99.90;;;;;;5063875;28;20434;-77
2022/09/30 03:56:23;;;;;;;13.47;5.37;;;10.30;99.90;;;;;;5068507;28;20445;-76
2022/09/30 03:59:19;;;;;;;9.63;4.70;;;10.40;99.90;;;;;;5064211;28;20438;-77
2022/09/30 04:02:05;;;;;;;15.80;4.63;;;10.40;99.90;;;;;;5064899;28;20461;-77
2022/09/30 04:04:53;;;;;;;6.40;4.53;;;10.50;99.90;;;;;;5065497;28;20470;-77
2022/09/30 04:07:38;;;;;;;7.33;4.57;;;10.60;99.90;;;;;;5070536;28;20428;-77
2022/09/30 04:10:24;;;;;;;7.47;4.83;;;10.50;99.90;;;;;;5062664;28;20920;-75
2022/09/30 04:13:10;;;;;;;5.70;4.83;;;10.40;99.90;;;;;;5065652;28;20519;-77
2022/09/30 04:15:55;;;;;;;5.80;5.07;;;10.30;99.90;;;;;;5062440;28;20442;-77
2022/09/30 04:18:41;;;;;;;6.57;4.80;;;10.20;99.90;;;;;;5061007;28;20565;-76
2022/09/30 04:21:28;;;;;;;7.23;4.73;;;10.20;99.90;;;;;;5067223;28;20509;-76
2022/09/30 04:24:14;;;;;;;6.43;4.50;;;10.20;99.90;;;;;;5080584;22;21310;-80
2022/09/30 04:27:00;;;;;;;6.33;4.40;;;10.30;99.90;;;;;;5068612;28;20657;-80
2022/09/30 04:29:46;;;;;;;8.60;5.40;;;10.40;99.90;;;;;;5065173;28;20449;-80
2022/09/30 04:32:32;;;;;;;9.60;5.07;;;10.30;99.90;;;;;;5068983;28;20929;-80
2022/09/30 04:35:18;;;;;;;7.77;4.70;;;10.20;99.90;;;;;;5063991;28;20597;-80
2022/09/30 04:38:06;;;;;;;11.57;4.57;;;10.30;99.90;;;;;;5069706;28;20544;-80
2022/09/30 04:40:54;;;;;;;5.27;4.77;;;10.30;99.90;;;;;;5068186;28;20542;-80
2022/09/30 04:43:43;;;;;;;4.90;3.90;;;10.20;99.90;;;;;;5061804;28;20462;-80
2022/09/30 04:46:29;;;;;;;6.10;3.93;;;10.00;99.90;;;;;;5061418;28;20453;-80
2022/09/30 04:49:15;;;;;;;5.53;3.60;;;9.80;99.90;;;;;;5069485;28;20898;-80
2022/09/30 04:52:03;;;;;;;4.23;3.67;;;9.80;99.90;;;;;;5069435;28;20522;-80
2022/09/30 04:54:50;;;;;;;6.00;4.13;;;9.80;99.90;;;;;;5061945;28;20474;-80
2022/09/30 04:57:36;;;;;;;4.70;3.40;;;9.80;99.90;;;;;;5062622;28;20460;-80
2022/09/30 05:00:23;;;;;;;6.73;3.50;;;9.80;99.90;;;;;;5065295;28;20462;-80
2022/09/30 05:03:09;;;;;;;7.03;4.73;;;9.70;99.90;;;;;;5070139;28;20454;-80
2022/09/30 05:05:56;;;;;;;4.93;3.80;;;9.50;99.90;;;;;;5066243;28;20440;-80
2022/09/30 05:08:43;;;;;;;14.17;8.77;;;9.40;99.90;;;;;;5061361;28;20449;-80
2022/09/30 05:11:30;;;;;;;13.00;6.80;;;9.30;99.90;;;;;;5068341;28;20620;-80
2022/09/30 05:14:16;;;;;;;22.00;10.93;;;9.30;99.90;;;;;;5070341;28;20856;-80
2022/09/30 05:17:03;;;;;;;20.90;9.03;;;9.20;99.90;;;;;;5079481;28;20441;-80
2022/09/30 05:19:49;;;;;;;11.03;5.60;;;9.20;99.90;;;;;;5074150;28;20438;-80
2022/09/30 05:22:35;;;;;;;31.90;24.03;;;9.10;99.90;;;;;;5068369;28;20642;-80
2022/09/30 05:25:22;;;;;;;14.10;9.30;;;9.10;99.90;;;;;;5070158;28;20470;-80
2022/09/30 05:28:11;;;;;;;17.27;9.13;;;9.00;99.90;;;;;;5074718;28;20489;-80
2022/09/30 05:30:59;;;;;;;15.27;9.17;;;9.00;99.90;;;;;;5075158;28;20462;-80
2022/09/30 05:33:47;;;;;;;13.60;8.10;;;9.00;99.90;;;;;;5064035;28;20793;-80
2022/09/30 05:36:32;;;;;;;14.33;5.30;;;9.00;99.90;;;;;;5066901;28;20567;-80
2022/09/30 05:39:18;;;;;;;6.37;3.63;;;9.00;99.90;;;;;;5053912;28;20654;-80
2022/09/30 05:42:05;;;;;;;9.67;5.40;;;8.90;99.90;;;;;;5071655;28;20537;-80
2022/09/30 05:44:51;;;;;;;5.80;3.80;;;8.90;99.90;;;;;;5066753;28;20525;-80
2022/09/30 05:47:38;;;;;;;22.67;12.40;;;8.80;99.90;;;;;;5067558;28;20948;-80
2022/09/30 05:50:25;;;;;;;19.37;10.30;;;8.70;99.90;;;;;;5068338;28;20455;-80
2022/09/30 05:53:11;;;;;;;12.77;7.23;;;8.60;99.90;;;;;;5069750;28;20434;-80
2022/09/30 05:55:56;;;;;;;7.53;4.00;;;8.60;99.90;;;;;;5065962;28;20485;-80
2022/09/30 05:58:42;;;;;;;7.60;4.13;;;8.60;99.90;;;;;;5067073;28;20497;-80
2022/09/30 06:01:29;;;;;;;5.23;3.80;;;8.60;99.90;;;;;;5071118;28;20462;-80
2022/09/30 06:04:15;;;;;;;10.40;4.90;;;8.70;99.90;;;;;;5061579;28;20474;-80
2022/09/30 06:07:01;;;;;;;6.83;4.70;;;8.80;99.90;;;;;;5059380;28;20455;-80
2022/09/30 06:09:47;;;;;;;9.80;4.80;;;8.80;99.90;;;;;;5059795;28;20460;-80
2022/09/30 06:12:34;;;;;;;6.60;4.57;;;8.70;99.90;;;;;;5056188;28;20469;-80
2022/09/30 06:15:20;;;;;;;7.33;4.17;;;8.90;99.90;;;;;;5065093;28;20532;-80
2022/09/30 06:18:11;;;;;;;4.50;3.67;;;9.00;99.90;;;;;;5074143;28;20442;-80
2022/09/30 06:21:00;;;;;;;10.53;3.80;;;9.20;99.90;;;;;;5062063;28;20421;-80
2022/09/30 06:23:46;;;;;;;6.97;3.53;;;9.40;99.90;;;;;;5062696;28;20458;-80
2022/09/30 06:26:32;;;;;;;6.00;4.27;;;9.40;99.90;;;;;;5069956;28;20447;-80
2022/09/30 06:29:18;;;;;;;4.20;3.10;;;9.40;99.90;;;;;;5079309;28;20441;-80
2022/09/30 06:32:05;;;;;;;6.03;3.90;;;9.60;99.90;;;;;;5070349;28;20470;-80
2022/09/30 06:34:54;;;;;;;4.67;3.33;;;9.70;99.90;;;;;;5068031;28;20624;-80
2022/09/30 06:37:40;;;;;;;6.27;3.83;;;9.70;99.90;;;;;;5063441;28;20446;-80
2022/09/30 06:40:26;;;;;;;8.13;4.63;;;9.70;99.90;;;;;;5060332;28;20471;-80
2022/09/30 06:43:12;;;;;;;11.27;4.43;;;9.70;99.90;;;;;;5061326;28;20443;-80
2022/09/30 06:45:58;;;;;;;8.23;4.33;;;9.70;99.90;;;;;;5063339;28;20629;-80
2022/09/30 06:48:44;;;;;;;6.67;4.40;;;9.60;99.90;;;;;;5069171;28;20427;-80
2022/09/30 06:51:32;;;;;;;8.47;5.20;;;9.70;99.90;;;;;;5064579;28;20445;-80
2022/09/30 06:54:19;;;;;;;5.87;4.80;;;9.80;99.90;;;;;;5071280;28;20441;-80
2022/09/30 06:57:05;;;;;;;8.60;5.30;;;9.90;99.90;;;;;;5069624;28;20462;-80
2022/09/30 06:59:52;;;;;;;13.00;4.77;;;10.00;99.90;;;;;;5058645;28;20502;-79
2022/09/30 07:02:38;;;;;;;11.20;6.13;;;9.90;99.90;;;;;;5067482;28;21062;-80
2022/09/30 07:05:26;;;;;;;6.90;4.73;;;9.90;99.90;;;;;;5064036;28;20560;-80
2022/09/30 07:08:13;;;;;;;5.77;4.50;;;10.00;99.90;;;;;;5070390;28;20564;-80
2022/09/30 07:10:59;;;;;;;7.87;5.73;;;10.10;99.90;;;;;;5066130;28;20452;-80
2022/09/30 07:13:46;;;;;;;10.63;4.80;;;10.20;99.90;;;;;;5067062;28;20520;-80
2022/09/30 07:16:33;;;;;;;5.63;5.07;;;10.20;99.90;;;;;;5066060;28;20526;-80
2022/09/30 07:19:21;;;;;;;16.23;5.10;;;10.30;99.90;;;;;;5070465;28;20954;-80
2022/09/30 07:25:13;;;;;;;7.70;5.47;;;10.30;99.90;;;;;;5069183;28;20575;-80
2022/09/30 07:27:58;;;;;;;6.10;5.30;;;10.30;99.90;;;;;;5070803;28;20521;-80
2022/09/30 07:30:44;;;;;;;7.37;5.00;;;10.50;99.90;;;;;;5060123;28;20817;-80
2022/09/30 07:33:31;;;;;;;6.63;5.17;;;10.50;99.90;;;;;;5064198;28;20471;-80
2022/09/30 07:36:17;;;;;;;6.30;4.30;;;10.60;99.90;;;;;;5064506;28;20454;-80
2022/09/30 07:39:05;;;;;;;5.17;4.30;;;10.70;99.90;;;;;;5072423;28;20439;-80
2022/09/30 07:41:53;;;;;;;6.53;3.93;;;10.70;99.90;;;;;;5071800;28;20435;-80
2022/09/30 07:44:43;;;;;;;8.47;4.63;;;10.80;99.90;;;;;;5058493;28;20488;-80
2022/09/30 07:47:29;;;;;;;11.80;4.60;;;10.90;99.90;;;;;;5069416;28;20586;-80
2022/09/30 07:50:14;;;;;;;7.00;3.77;;;11.00;99.90;;;;;;5075382;28;20462;-80
2022/09/30 07:53:01;;;;;;;8.07;3.77;;;11.10;99.90;;;;;;5063778;28;20553;-80
2022/09/30 07:55:46;;;;;;;6.80;4.67;;;11.20;99.90;;;;;;5064989;28;20522;-80
2022/09/30 07:58:34;;;;;;;9.93;5.07;;;11.30;99.90;;;;;;5062533;28;21038;-80
2022/09/30 08:01:20;;;;;;;6.40;4.47;;;11.50;99.90;;;;;;5068886;28;20446;-80
2022/09/30 08:04:08;;;;;;;6.53;4.60;;;11.60;99.90;;;;;;5061958;28;21007;-80
2022/09/30 08:06:59;;;;;;;12.60;5.23;;;11.80;99.90;;;;;;5064975;28;20494;-80
2022/09/30 08:09:45;;;;;;;12.53;5.00;;;11.90;99.90;;;;;;5063167;28;20445;-81
2022/09/30 08:12:31;;;;;;;6.67;4.47;;;12.10;99.90;;;;;;5065581;28;20584;-80
2022/09/30 08:15:22;;;;;;;11.53;4.90;;;12.20;99.90;;;;;;5069294;28;20574;-80
2022/09/30 08:18:08;;;;;;;7.67;4.60;;;12.40;99.90;;;;;;5060696;28;20868;-80
2022/09/30 08:20:54;;;;;;;8.03;5.00;;;12.40;99.90;;;;;;5059275;28;20810;-81
2022/09/30 08:23:41;;;;;;;8.90;4.87;;;12.60;99.90;;;;;;5067282;28;20450;-80
2022/09/30 08:26:26;;;;;;;8.97;4.23;;;12.60;99.90;;;;;;5067335;28;20478;-80
2022/09/30 08:29:13;;;;;;;10.17;4.57;;;12.70;99.90;;;;;;5059060;28;20502;-80
2022/09/30 08:32:02;;;;;;;8.17;4.63;;;12.80;99.90;;;;;;5059022;28;20933;-78
2022/09/30 08:34:53;;;;;;;7.73;4.07;;;13.00;99.90;;;;;;5065531;28;20548;-80
2022/09/30 08:37:39;;;;;;;6.70;4.53;;;12.90;99.90;;;;;;5066961;28;20431;-79
2022/09/30 08:40:28;;;;;;;10.40;4.60;;;13.00;99.90;;;;;;5070743;28;20513;-79
2022/09/30 08:43:31;;;;;;;7.57;4.23;;;13.20;99.90;;;;;;5062321;28;20852;-81
2022/09/30 08:46:35;;;;;;;5.50;4.23;;;13.30;99.90;;;;;;5066679;28;20548;-81
2022/09/30 08:49:39;;;;;;;5.67;4.23;;;13.50;99.90;;;;;;5064477;28;20459;-80
2022/09/30 08:52:28;;;;;;;7.20;4.00;;;13.60;99.90;;;;;;5062889;28;20467;-80
2022/09/30 08:55:24;;;;;;;5.53;3.80;;;13.70;99.90;;;;;;5062694;28;21030;-80
2022/09/30 08:58:19;;;;;;;5.03;3.90;;;13.90;99.90;;;;;;5071946;28;20463;-80
2022/09/30 09:01:14;;;;;;;7.37;4.07;;;14.10;99.90;;;;;;5070107;28;20450;-80
2022/09/30 09:04:03;;;;;;;5.97;3.47;;;14.20;99.90;;;;;;5067658;28;20891;-80
2022/09/30 09:07:08;;;;;;;8.13;3.27;;;14.30;99.90;;;;;;5080136;28;20451;-80
2022/09/30 09:10:15;;;;;;;4.87;2.97;;;14.50;99.90;;;;;;5070058;28;20856;-80
2022/09/30 09:13:21;;;;;;;4.53;2.93;;;14.50;99.90;;;;;;5061518;28;20494;-81
2022/09/30 09:16:14;;;;;;;6.90;3.13;;;14.70;99.90;;;;;;5056755;28;20594;-80
2022/09/30 09:19:19;;;;;;;5.23;3.30;;;14.80;99.90;;;;;;5054411;28;20406;-82
2022/09/30 09:22:10;;;;;;;6.93;3.43;;;14.90;99.90;;;;;;5064679;28;20827;-79
2022/09/30 09:25:03;;;;;;;5.47;2.83;;;15.00;99.90;;;;;;5083049;28;20563;-80
2022/09/30 09:27:52;;;;;;;5.10;2.50;;;15.10;99.90;;;;;;5068524;28;20431;-80
2022/09/30 09:30:51;;;;;;;4.83;3.13;;;15.20;99.90;;;;;;5071113;28;20443;-80
2022/09/30 09:44:00;;;;;;;7.30;3.00;;;15.80;99.90;;;;;;5061873;28;20566;-80
2022/09/30 09:46:50;;;;;;;6.80;3.40;;;16.00;99.90;;;;;;5058193;28;20445;-79
2022/09/30 09:49:37;;;;;;;8.13;3.57;;;15.90;99.90;;;;;;5064219;28;20456;-80
2022/09/30 09:53:19;;;;;;;5.30;2.53;;;16.00;99.90;;;;;;5060193;28;20464;-78
2022/09/30 09:56:32;;;;;;;14.87;3.30;;;16.10;99.90;;;;;;5077607;28;20496;-80
2022/09/30 09:59:18;;;;;;;3.57;3.00;;;16.30;99.90;;;;;;5075476;28;20476;-80
2022/09/30 10:02:26;;;;;;;6.00;3.17;;;16.40;99.90;;;;;;5072302;28;20425;-80
2022/09/30 10:08:33;;;;;;;5.27;2.90;;;16.20;91.20;;;;;;5066932;28;20421;-81
2022/09/30 10:11:22;;;;;;;8.87;3.90;;;16.10;91.80;;;;;;5068813;28;20438;-80
2022/09/30 10:14:18;;;;;;;4.87;3.40;;;15.90;93.60;;;;;;5078407;28;20990;-78
2022/09/30 10:17:06;;;;;;;6.50;4.17;;;15.90;97.70;;;;;;5069468;28;20853;-80
2022/09/30 10:19:54;;;;;;;6.13;4.33;;;15.90;97.60;;;;;;5071524;28;20471;-80
2022/09/30 10:22:39;;;;;;;6.87;3.47;;;15.90;97.60;;;;;;5070717;28;20525;-80
2022/09/30 10:25:25;;;;;;;8.70;4.40;;;16.10;99.90;;;;;;5068323;22;20486;-92
2022/09/30 10:28:25;;;;;;;6.20;3.90;;;16.30;98.20;;;;;;5051616;28;20513;-91
2022/09/30 10:31:22;;;;;;;8.57;5.00;;;16.50;97.70;;;;;;5050449;28;20582;-92
2022/09/30 10:34:15;;;;;;;11.30;7.50;;;16.50;94.50;;;;;;5051775;28;20463;-91
2022/09/30 10:37:07;;;;;;;11.43;5.00;;;16.60;94.30;;;;;;5053223;28;20452;-91
2022/09/30 10:40:00;;;;;;;8.20;4.23;;;16.70;93.30;;;;;;5039884;28;20428;-90
2022/09/30 10:42:48;;;;;;;29.87;17.40;;;16.50;90.50;;;;;;5028796;28;20407;-91
2022/09/30 10:45:40;;;;;;;15.53;4.57;;;16.50;92.50;;;;;;5041351;28;20485;-91
2022/09/30 10:48:30;;;;;;;7.90;4.53;;;16.40;92.20;;;;;;5048034;28;20500;-91
2022/09/30 10:51:24;;;;;;;5.57;3.40;;;16.60;93.40;;;;;;5047455;28;20406;-91
2022/09/30 10:54:46;;;;;;;15.60;7.57;;;16.80;96.50;;;;;;5032119;28;20481;-91
2022/09/30 10:57:34;;;;;;;8.27;5.50;;;16.90;93.20;;;;;;5041065;28;20539;-91
2022/09/30 11:00:22;;;;;;;19.13;5.67;;;17.10;94.10;;;;;;5047785;28;20428;-91
2022/09/30 11:03:14;;;;;;;17.23;5.60;;;17.20;93.80;;;;;;5029393;28;20810;-90
2022/09/30 11:06:00;;;;;;;13.60;7.47;;;17.20;90.00;;;;;;5046971;28;20418;-91
2022/09/30 11:08:51;;;;;;;15.67;8.60;;;16.90;90.10;;;;;;5053027;28;20398;-91
2022/09/30 11:11:43;;;;;;;13.83;7.50;;;16.70;90.00;;;;;;5041583;28;20453;-91
2022/09/30 11:14:36;;;;;;;14.33;7.80;;;16.70;92.00;;;;;;5039747;28;20464;-91
2022/09/30 11:17:31;;;;;;;10.70;4.63;;;16.70;92.90;;;;;;5037847;28;20402;-91
2022/09/30 11:20:22;;;;;;;11.27;6.10;;;16.50;91.40;;;;;;5041801;28;20436;-91
2022/09/30 11:23:20;;;;;;;11.83;6.57;;;16.60;92.80;;;;;;5045456;28;20439;-90
2022/09/30 11:26:15;;;;;;;10.03;5.70;;;16.60;91.60;;;;;;5047803;28;20438;-91
2022/09/30 11:29:27;;;;;;;9.80;4.40;;;16.50;91.90;;;;;;5051985;28;21121;-92
2022/09/30 11:32:23;;;;;;;7.27;5.23;;;16.70;90.30;;;;;;5037066;28;20934;-92
2022/09/30 11:35:23;;;;;;;11.23;6.30;;;16.90;90.10;;;;;;5047221;28;20976;-91
2022/09/30 11:38:30;;;;;;;7.10;5.20;;;17.00;91.90;;;;;;5035045;28;20559;-91
2022/09/30 11:41:24;;;;;;;9.70;6.97;;;17.00;83.30;;;;;;5035008;28;20978;-91
2022/09/30 11:44:22;;;;;;;9.67;6.40;;;17.10;84.00;;;;;;5037338;28;20819;-91
2022/09/30 11:47:27;;;;;;;7.60;5.27;;;16.90;84.00;;;;;;5028171;28;20415;-92
2022/09/30 11:50:41;;;;;;;6.57;4.63;;;17.10;85.80;;;;;;5030666;28;20474;-91
2022/09/30 11:53:41;;;;;;;6.87;5.60;;;17.30;87.70;;;;;;5032576;28;20438;-91
2022/09/30 11:56:38;;;;;;;6.83;5.03;;;17.20;81.90;;;;;;5032405;28;20515;-92
2022/09/30 11:59:29;;;;;;;8.23;5.70;;;17.40;76.40;;;;;;5025640;28;20929;-92
2022/09/30 12:02:27;;;;;;;11.63;4.70;;;17.40;79.40;;;;;;5029491;28;20440;-91
2022/09/30 12:05:18;;;;;;;5.23;4.53;;;17.40;72.50;;;;;;5069183;22;20493;-75
2022/09/30 12:08:10;;;;;;;9.53;4.97;;;17.60;72.00;;;;;;5079331;28;20505;-76
2022/09/30 12:11:02;;;;;;;9.77;5.50;;;17.60;73.60;;;;;;5080620;28;21009;-76
2022/09/30 12:13:52;;;;;;;7.70;4.47;;;17.70;68.60;;;;;;5084662;28;20567;-76
2022/09/30 12:16:40;;;;;;;6.30;4.20;;;17.70;64.60;;;;;;5070592;28;20433;-75
2022/09/30 12:19:32;;;;;;;6.33;3.70;;;17.80;68.80;;;;;;5073254;28;20411;-75
2022/09/30 12:22:21;;;;;;;10.03;4.27;;;17.80;66.80;;;;;;5056895;28;20422;-74
2022/09/30 12:25:14;;;;;;;9.93;4.50;;;17.70;60.50;;;;;;5080578;28;20796;-74
2022/09/30 12:30:15;;;;;;;11.80;5.40;;;17.90;64.50;;;;;;5073768;28;20447;-75
2022/09/30 12:31:37;;;;;;;5.00;3.53;;;18.00;64.90;;;;;;5063022;28;20997;-75
2022/09/30 12:34:38;;;;;;;10.60;3.67;;;18.10;54.90;;;;;;5065383;28;20453;-74
2022/09/30 12:37:41;;;;;;;7.23;3.47;;;18.20;56.80;;;;;;5067927;28;20437;-75
2022/09/30 12:40:47;;;;;;;7.77;3.97;;;18.20;59.50;;;;;;5068545;28;20497;-74
2022/09/30 12:43:59;;;;;;;8.37;4.23;;;18.30;53.00;;;;;;5062960;28;20413;-75
2022/09/30 12:47:04;;;;;;;6.70;3.80;;;18.40;51.90;;;;;;5072056;28;20450;-74
2022/09/30 12:49:53;;;;;;;5.47;3.70;;;18.40;50.30;;;;;;5072520;28;20449;-74
2022/09/30 12:52:39;;;;;;;7.17;4.40;;;18.60;51.90;;;;;;5064185;28;20458;-75
2022/09/30 12:55:31;;;;;;;7.97;4.80;;;18.70;50.50;;;;;;5066166;28;20491;-74
2022/09/30 12:58:22;;;;;;;6.57;3.67;;;18.80;44.30;;;;;;5069736;28;20878;-75
2022/09/30 13:01:14;;;;;;;6.60;4.40;;;18.90;47.50;;;;;;5064865;28;20450;-75
2022/09/30 13:04:32;;;;;;;7.33;4.67;;;19.10;49.60;;;;;;5067018;28;20450;-75
2022/09/30 13:07:22;;;;;;;7.67;4.40;;;19.10;44.00;;;;;;5067737;28;20790;-75
2022/09/30 13:10:30;;;;;;;25.17;14.03;;;19.30;45.60;;;;;;5068001;28;20511;-75
2022/09/30 13:13:23;;;;;;;17.37;9.10;;;19.20;46.50;;;;;;5083609;28;20457;-75
2022/09/30 13:16:09;;;;;;;14.80;7.80;;;18.60;46.10;;;;;;5079789;28;20455;-75
2022/09/30 13:19:01;;;;;;;9.37;6.30;;;18.40;49.00;;;;;;5076163;28;20979;-75
2022/09/30 13:21:47;;;;;;;9.10;5.73;;;18.40;49.90;;;;;;5078058;28;20776;-75
2022/09/30 13:25:04;;;;;;;13.00;5.10;;;18.30;51.50;;;;;;5079164;28;20940;-74
2022/09/30 13:27:52;;;;;;;9.60;5.50;;;18.30;54.70;;;;;;5083055;28;20487;-74
2022/09/30 13:30:40;;;;;;;39.20;19.57;;;18.60;48.60;;;;;;5067167;28;20417;-74
2022/09/30 13:33:43;;;;;;;13.30;5.70;;;18.60;49.00;;;;;;5082045;28;20525;-75
2022/09/30 13:36:31;;;;;;;8.30;5.80;;;18.70;52.60;;;;;;5072697;28;20419;-75
2022/09/30 13:39:24;;;;;;;11.57;7.07;;;19.00;49.40;;;;;;5070313;28;20954;-75
2022/09/30 13:42:17;;;;;;;18.57;9.00;;;19.10;47.70;;;;;;5071718;28;20576;-75
2022/09/30 13:45:06;;;;;;;10.67;6.60;;;19.00;49.60;;;;;;5082860;28;20444;-74
2022/09/30 13:48:01;;;;;;;8.10;5.00;;;18.80;52.00;;;;;;5068801;28;20416;-75
2022/09/30 13:50:49;;;;;;;9.10;5.43;;;18.60;51.70;;;;;;5069467;28;20462;-75
2022/09/30 13:53:38;;;;;;;7.93;5.80;;;18.40;53.60;;;;;;5067467;28;21110;-75
2022/09/30 13:56:27;;;;;;;7.30;4.67;;;18.00;51.70;;;;;;5071197;28;20511;-75
2022/09/30 13:59:42;;;;;;;8.63;4.40;;;17.90;60.10;;;;;;5074072;28;20425;-75
2022/09/30 14:03:06;;;;;;;12.73;5.23;;;17.70;55.30;;;;;;5060458;28;20529;-75
2022/09/30 14:05:59;;;;;;;6.10;4.03;;;17.60;62.50;;;;;;5067549;28;20453;-72
2022/09/30 14:09:11;;;;;;;9.50;4.67;;;17.50;70.40;;;;;;5071406;28;20450;-72
2022/09/30 14:12:16;;;;;;;9.03;5.00;;;17.40;68.40;;;;;;5043433;28;20444;-72
2022/09/30 14:15:36;;;;;;;16.53;5.90;;;17.30;65.70;;;;;;5068171;28;20514;-72
2022/09/30 14:18:36;;;;;;;11.10;6.80;;;17.40;66.50;;;;;;5070756;28;20922;-72
2022/09/30 14:21:36;;;;;;;10.60;5.43;;;17.40;61.70;;;;;;5063113;28;20417;-75
2022/09/30 14:24:25;;;;;;;12.97;5.13;;;17.50;61.90;;;;;;5062240;28;20933;-75
2022/09/30 14:27:38;;;;;;;12.83;5.40;;;17.50;72.20;;;;;;5076292;28;20422;-75
2022/09/30 14:30:25;;;;;;;11.00;4.53;;;17.10;83.40;;;;;;5057769;28;20632;-75
2022/09/30 14:33:18;;;;;;;7.13;4.53;;;16.90;92.60;;;;;;5070351;28;20544;-72
2022/09/30 14:36:12;;;;;;;6.40;3.80;;;16.80;99.90;;;;;;5065852;28;20460;-74
2022/09/30 14:39:00;;;;;;;9.67;3.43;;;16.60;99.90;;;;;;5072726;28;20422;-73
2022/09/30 14:41:51;;;;;;;9.50;3.50;;;16.50;99.90;;;;;;5054663;28;20893;-73
2022/09/30 14:44:39;;;;;;;5.67;4.30;;;16.60;99.90;;;;;;5069255;28;20823;-72
2022/09/30 14:47:25;;;;;;;11.43;3.33;;;16.50;99.90;;;;;;5065683;28;20418;-73
2022/09/30 14:50:15;;;;;;;6.90;3.80;;;16.40;99.90;;;;;;5060660;28;20836;-73
2022/09/30 14:53:02;;;;;;;8.33;4.27;;;16.30;99.90;;;;;;5062678;28;20449;-73
2022/09/30 14:55:49;;;;;;;6.23;3.43;;;16.60;99.90;;;;;;5069253;28;20435;-73
2022/09/30 14:58:41;;;;;;;8.80;5.20;;;17.30;99.90;;;;;;5070404;28;20418;-73
2022/09/30 15:01:30;;;;;;;7.90;3.70;;;17.80;98.10;;;;;;5070405;28;20420;-73
2022/09/30 15:04:19;;;;;;;10.23;3.87;;;18.20;91.80;;;;;;5068019;28;20511;-73
2022/09/30 15:07:09;;;;;;;8.00;4.10;;;18.30;91.70;;;;;;5067787;28;20944;-73
2022/09/30 15:10:01;;;;;;;8.80;3.70;;;18.60;89.70;;;;;;5064675;28;20462;-73